createdAt,value
2024-01-11T00:00:28.417Z,101861.53
2024-01-11T00:02:31.363Z,101865.28
2024-01-11T00:04:34.386Z,101863.72
2024-01-11T00:06:42.940Z,101860.69
2024-01-11T00:08:47.241Z,101855.06
2024-01-11T00:10:49.144Z,101854.16
2024-01-11T00:12:52.473Z,101863.72
2024-01-11T00:16:57.252Z,101865.53
2024-01-11T00:18:59.432Z,101858.63
2024-01-11T00:21:02.916Z,101856.81
2024-01-11T00:23:05.865Z,101846.13
2024-01-11T00:25:10.737Z,101857.31
2024-01-11T00:27:13.492Z,101857.28
2024-01-11T00:29:15.504Z,101857.84
2024-01-11T00:31:18.469Z,101868.06
2024-01-11T00:33:21.456Z,101870.06
2024-01-11T00:35:24.479Z,101865.41
2024-01-11T00:37:27.484Z,101864.75
2024-01-11T00:39:31.007Z,101865.78
2024-01-11T00:41:35.368Z,101855.84
2024-01-11T00:43:38.328Z,101862.44
2024-01-11T00:45:41.257Z,101858.38
2024-01-11T00:47:44.477Z,101862.41
2024-01-11T00:49:46.662Z,101857.31
2024-01-11T00:51:49.649Z,101858.38
2024-01-11T00:53:51.589Z,101865.28
2024-01-11T00:55:54.991Z,101868.22
2024-01-11T00:58:02.631Z,101864.00
2024-01-11T01:00:06.605Z,101866.28
2024-01-11T01:02:09.484Z,101868.59
2024-01-11T01:04:12.534Z,101865.03
2024-01-11T01:06:15.571Z,101876.34
2024-01-11T01:08:18.522Z,101871.16
2024-01-11T01:10:21.481Z,101874.81
2024-01-11T01:12:26.076Z,101875.16
2024-01-11T01:14:30.407Z,101881.81
2024-01-11T01:16:33.306Z,101876.06
2024-01-11T01:18:36.371Z,101871.97
2024-01-11T01:20:39.348Z,101872.59
2024-01-11T01:22:41.343Z,101872.72
2024-01-11T01:24:44.277Z,101880.28
2024-01-11T01:26:47.292Z,101868.06
2024-01-11T01:28:50.213Z,101873.16
2024-01-11T01:30:54.661Z,101879.00
2024-01-11T01:32:57.866Z,101875.97
2024-01-11T01:34:59.950Z,101873.81
2024-01-11T01:37:02.900Z,101868.56
2024-01-11T01:39:05.836Z,101874.56
2024-01-11T01:41:08.466Z,101871.63
2024-01-11T01:43:13.991Z,101874.81
2024-01-11T01:45:17.893Z,101872.84
2024-01-11T01:47:22.839Z,101873.81
2024-01-11T01:49:25.730Z,101883.38
2024-01-11T01:51:31.750Z,101890.09
2024-01-11T01:53:34.751Z,101895.88
2024-01-11T01:55:37.656Z,101894.59
2024-01-11T01:57:43.071Z,101890.66
2024-01-11T01:59:47.028Z,101894.44
2024-01-11T02:01:50.669Z,101902.81
2024-01-11T02:03:56.784Z,101902.94
2024-01-11T02:06:00.306Z,101900.25
2024-01-11T02:08:09.347Z,101903.97
2024-01-11T02:10:12.702Z,101902.94
2024-01-11T02:12:16.458Z,101909.56
2024-01-11T02:14:19.695Z,101906.25
2024-01-11T02:16:22.797Z,101902.94
2024-01-11T02:18:25.814Z,101896.94
2024-01-11T02:20:29.271Z,101894.41
2024-01-11T02:22:36.804Z,101891.44
2024-01-11T02:24:41.396Z,101893.00
2024-01-11T02:27:02.483Z,101886.13
2024-01-11T02:29:05.485Z,101893.38
2024-01-11T02:31:07.504Z,101888.63
2024-01-11T02:33:11.368Z,101892.69
2024-01-11T02:35:13.785Z,101899.81
2024-01-11T02:37:17.180Z,101895.69
2024-01-11T02:39:21.971Z,101896.69
2024-01-11T02:41:27.720Z,101901.69
2024-01-11T02:43:30.730Z,101894.31
2024-01-11T02:45:33.790Z,101900.16
2024-01-11T02:47:35.946Z,101899.22
2024-01-11T02:49:38.943Z,101901.44
2024-01-11T02:51:42.427Z,101902.78
2024-01-11T02:53:45.301Z,101903.53
2024-01-11T02:55:48.354Z,101901.78
2024-01-11T02:57:52.553Z,101905.00
2024-01-11T02:59:54.522Z,101901.69
2024-01-11T03:01:57.818Z,101899.50
2024-01-11T03:04:01.696Z,101895.84
2024-01-11T03:06:05.544Z,101904.81
2024-01-11T03:08:08.579Z,101904.81
2024-01-11T03:10:11.697Z,101902.19
2024-01-11T03:12:14.693Z,101899.59
2024-01-11T03:14:18.542Z,101891.47
2024-01-11T03:16:21.409Z,101886.50
2024-01-11T03:18:24.527Z,101891.03
2024-01-11T03:20:27.663Z,101890.91
2024-01-11T03:22:30.647Z,101889.41
2024-01-11T03:24:33.583Z,101879.44
2024-01-11T03:26:36.606Z,101880.44
2024-01-11T03:28:39.504Z,101880.72
2024-01-11T03:30:44.205Z,101876.72
2024-01-11T03:32:46.390Z,101881.22
2024-01-11T03:34:50.474Z,101875.13
2024-01-11T03:36:53.423Z,101870.94
2024-01-11T03:38:56.333Z,101867.34
2024-01-11T03:40:59.264Z,101872.38
2024-01-11T03:43:02.157Z,101871.56
2024-01-11T03:45:06.231Z,101873.69
2024-01-11T03:47:10.521Z,101870.72
2024-01-11T03:49:13.471Z,101865.84
2024-01-11T03:51:16.459Z,101871.91
2024-01-11T03:53:19.745Z,101874.53
2024-01-11T03:55:22.756Z,101868.75
2024-01-11T03:57:24.694Z,101872.47
2024-01-11T03:59:27.656Z,101871.78
2024-01-11T04:01:30.641Z,101877.28
2024-01-11T04:03:34.989Z,101880.63
2024-01-11T04:05:38.359Z,101877.81
2024-01-11T04:07:40.360Z,101872.50
2024-01-11T04:09:43.298Z,101874.53
2024-01-11T04:11:45.215Z,101878.53
2024-01-11T04:13:48.084Z,101883.97
2024-01-11T04:15:50.979Z,101867.78
2024-01-11T04:17:53.160Z,101867.09
2024-01-11T04:19:57.474Z,101883.25
2024-01-11T04:22:00.491Z,101876.13
2024-01-11T04:24:03.413Z,101875.16
2024-01-11T04:26:06.823Z,101879.84
2024-01-11T04:28:09.066Z,101882.38
2024-01-11T04:30:13.837Z,101879.09
2024-01-11T04:32:16.798Z,101885.19
2024-01-11T04:34:19.774Z,101886.47
2024-01-11T04:36:24.092Z,101888.16
2024-01-11T04:38:27.089Z,101890.22
2024-01-11T04:40:30.152Z,101884.66
2024-01-11T04:42:33.042Z,101900.06
2024-01-11T04:44:36.015Z,101899.47
2024-01-11T04:46:37.950Z,101895.88
2024-01-11T04:48:40.965Z,101903.09
2024-01-11T04:50:45.045Z,101903.09
2024-01-11T04:52:49.301Z,101908.41
2024-01-11T04:54:51.233Z,101902.97
2024-01-11T04:56:54.151Z,101894.09
2024-01-11T04:58:57.086Z,101905.44
2024-01-11T05:01:00.070Z,101902.47
2024-01-11T05:03:03.001Z,101905.50
2024-01-11T05:05:06.587Z,101904.81
2024-01-11T05:07:08.745Z,101907.31
2024-01-11T05:09:13.037Z,101909.06
2024-01-11T05:11:19.549Z,101907.84
2024-01-11T05:13:22.627Z,101911.84
2024-01-11T05:15:25.552Z,101906.91
2024-01-11T05:17:28.952Z,101904.56
2024-01-11T05:19:31.050Z,101912.75
2024-01-11T05:21:33.930Z,101910.19
2024-01-11T05:23:37.016Z,101906.81
2024-01-11T05:25:41.607Z,101908.94
2024-01-11T05:27:44.625Z,101911.97
2024-01-11T05:29:47.162Z,101909.56
2024-01-11T05:31:50.210Z,101905.03
2024-01-11T05:33:52.461Z,101909.66
2024-01-11T05:35:55.545Z,101909.06
2024-01-11T05:37:58.582Z,101909.19
2024-01-11T05:40:01.516Z,101922.25
2024-01-11T05:42:06.395Z,101918.22
2024-01-11T05:44:09.334Z,101926.50
2024-01-11T05:46:12.336Z,101929.44
2024-01-11T05:48:15.351Z,101927.94
2024-01-11T05:50:18.491Z,101932.69
2024-01-11T05:52:21.561Z,101933.16
2024-01-11T05:54:24.558Z,101935.84
2024-01-11T05:56:27.668Z,101930.78
2024-01-11T05:58:32.084Z,101934.34
2024-01-11T06:00:34.154Z,101926.31
2024-01-11T06:02:38.626Z,101942.81
2024-01-11T06:04:41.677Z,101935.06
2024-01-11T06:06:44.766Z,101931.13
2024-01-11T06:08:47.899Z,101935.19
2024-01-11T06:10:50.920Z,101941.84
2024-01-11T06:12:53.767Z,101938.56
2024-01-11T06:14:58.787Z,101930.66
2024-01-11T06:17:01.840Z,101928.31
2024-01-11T06:19:05.156Z,101932.31
2024-01-11T06:21:08.131Z,101931.44
2024-01-11T06:23:11.122Z,101941.75
2024-01-11T06:25:13.047Z,101945.66
2024-01-11T06:27:16.013Z,101943.94
2024-01-11T06:29:18.097Z,101942.91
2024-01-11T06:31:22.471Z,101947.22
2024-01-11T06:33:25.429Z,101947.88
2024-01-11T06:35:28.507Z,101954.84
2024-01-11T06:37:30.483Z,101958.38
2024-01-11T06:39:33.388Z,101962.94
2024-01-11T06:41:36.449Z,101964.19
2024-01-11T06:43:39.463Z,101965.38
2024-01-11T06:45:42.957Z,101967.56
2024-01-11T06:47:47.978Z,101972.91
2024-01-11T06:49:51.056Z,101980.25
2024-01-11T06:51:54.219Z,101980.53
2024-01-11T06:53:56.120Z,101981.03
2024-01-11T06:55:59.129Z,101986.28
2024-01-11T06:58:03.121Z,101988.69
2024-01-11T07:00:08.418Z,101987.03
2024-01-11T07:02:12.170Z,101997.78
2024-01-11T07:04:16.635Z,102001.00
2024-01-11T07:06:19.697Z,101996.56
2024-01-11T07:11:53.930Z,102023.16
2024-01-11T07:13:56.770Z,102016.59
2024-01-11T07:15:59.960Z,102024.50
2024-01-11T07:18:03.045Z,102025.50
2024-01-11T07:20:10.426Z,102024.34
2024-01-11T07:22:13.409Z,102022.84
2024-01-11T07:24:16.664Z,102033.94
2024-01-11T07:26:19.600Z,102031.50
2024-01-11T07:28:26.672Z,102037.78
2024-01-11T07:30:29.753Z,102024.38
2024-01-11T07:32:32.800Z,102035.44
2024-01-11T07:34:35.895Z,102045.00
2024-01-11T07:36:40.560Z,102039.50
2024-01-11T07:38:43.517Z,102032.47
2024-01-11T07:40:46.440Z,102031.41
2024-01-11T07:42:48.439Z,102032.91
2024-01-11T07:44:51.294Z,102032.47
2024-01-11T07:46:55.961Z,102037.84
2024-01-11T07:49:00.845Z,102035.59
2024-01-11T07:51:03.597Z,102035.47
2024-01-11T07:53:07.961Z,102034.72
2024-01-11T07:55:13.800Z,102040.69
2024-01-11T07:57:16.929Z,102046.66
2024-01-11T07:59:19.908Z,102053.38
2024-01-11T08:01:21.888Z,102042.91
2024-01-11T08:03:24.889Z,102048.00
2024-01-11T08:05:27.959Z,102051.59
2024-01-11T08:07:31.456Z,102046.34
2024-01-11T08:09:35.729Z,102043.19
2024-01-11T08:11:40.840Z,102046.47
2024-01-11T08:13:45.780Z,102053.09
2024-01-11T08:15:48.704Z,102047.28
2024-01-11T08:17:50.838Z,102041.38
2024-01-11T08:19:53.774Z,102039.78
2024-01-11T08:21:57.532Z,102039.94
2024-01-11T08:24:03.248Z,102048.25
2024-01-11T08:26:08.173Z,102050.00
2024-01-11T08:28:11.840Z,102051.50
2024-01-11T08:30:15.274Z,102044.53
2024-01-11T08:32:28.215Z,102055.16
2024-01-11T08:34:34.871Z,102058.84
2024-01-11T08:36:39.706Z,102064.03
2024-01-11T08:38:42.893Z,102064.34
2024-01-11T08:40:46.903Z,102057.50
2024-01-11T08:42:51.209Z,102060.78
2024-01-11T08:44:54.306Z,102057.34
2024-01-11T08:47:00.149Z,102069.19
2024-01-11T08:49:04.519Z,102068.44
2024-01-11T08:51:07.923Z,102059.94
2024-01-11T08:53:10.868Z,102066.94
2024-01-11T08:55:15.425Z,102063.41
2024-01-11T08:57:18.600Z,102066.09
2024-01-11T08:59:26.089Z,102064.31
2024-01-11T09:01:29.011Z,102062.53
2024-01-11T09:03:32.076Z,102058.94
2024-01-11T09:05:35.220Z,102058.59
2024-01-11T09:07:38.580Z,102056.34
2024-01-11T09:09:47.721Z,102060.56
2024-01-11T09:11:57.164Z,102049.00
2024-01-11T09:14:00.624Z,102050.97
2024-01-11T09:16:05.408Z,102049.94
2024-01-11T09:18:08.580Z,102050.03
2024-01-11T09:20:15.446Z,102051.69
2024-01-11T09:22:18.486Z,102061.03
2024-01-11T09:24:21.361Z,102051.75
2024-01-11T09:26:24.638Z,102050.44
2024-01-11T09:28:27.612Z,102052.88
2024-01-11T09:30:30.576Z,102056.31
2024-01-11T09:32:34.075Z,102054.63
2024-01-11T09:34:37.136Z,102060.25
2024-01-11T09:36:40.900Z,102067.66
2024-01-11T09:38:43.885Z,102066.63
2024-01-11T09:40:47.145Z,102055.88
2024-01-11T09:42:50.437Z,102051.53
2024-01-11T09:44:52.919Z,102061.94
2024-01-11T09:46:56.647Z,102064.56
2024-01-11T09:49:02.809Z,102070.50
2024-01-11T09:51:06.620Z,102068.75
2024-01-11T09:53:10.960Z,102076.00
2024-01-11T09:55:14.611Z,102075.66
2024-01-11T09:57:24.024Z,102087.19
2024-01-11T09:59:27.816Z,102090.53
2024-01-11T10:01:30.979Z,102107.22
2024-01-11T10:03:33.901Z,102100.00
2024-01-11T10:05:38.786Z,102092.44
2024-01-11T10:07:41.726Z,102098.28
2024-01-11T10:09:45.285Z,102096.53
2024-01-11T10:11:49.659Z,102089.50
2024-01-11T10:13:58.541Z,102089.22
2024-01-11T10:16:07.656Z,102085.88
2024-01-11T10:18:14.086Z,102089.28
2024-01-11T10:20:16.915Z,102082.97
2024-01-11T10:22:23.258Z,102079.22
2024-01-11T10:24:28.229Z,102081.66
2024-01-11T10:26:33.411Z,102072.63
2024-01-11T10:28:38.655Z,102067.34
2024-01-11T10:30:42.052Z,102052.59
2024-01-11T10:32:46.018Z,102057.47
2024-01-11T10:34:49.243Z,102043.75
2024-01-11T10:36:51.633Z,102040.91
2024-01-11T10:38:57.933Z,102042.22
2024-01-11T10:41:01.469Z,102044.41
2024-01-11T10:43:07.723Z,102053.13
2024-01-11T10:45:16.622Z,102065.56
2024-01-11T10:47:23.290Z,102063.63
2024-01-11T10:49:32.549Z,102067.41
2024-01-11T10:51:34.571Z,102068.47
2024-01-11T10:53:45.011Z,102068.00
2024-01-11T10:55:51.380Z,102070.25
2024-01-11T10:57:55.831Z,102074.13
2024-01-11T11:00:06.678Z,102065.13
2024-01-11T11:02:14.119Z,102063.69
2024-01-11T11:04:17.773Z,102068.28
2024-01-11T11:06:21.113Z,102062.00
2024-01-11T11:08:25.432Z,102054.94
2024-01-11T11:10:31.043Z,102050.47
2024-01-11T11:12:36.934Z,102056.47
2024-01-11T11:14:40.705Z,102050.50
2024-01-11T11:16:44.276Z,102052.31
2024-01-11T11:18:47.260Z,102050.00
2024-01-11T11:20:51.366Z,102049.00
2024-01-11T11:23:06.003Z,102050.78
2024-01-11T11:25:11.474Z,102059.34
2024-01-11T11:27:15.796Z,102051.44
2024-01-11T11:29:21.669Z,102035.81
2024-01-11T11:31:37.497Z,102031.56
2024-01-11T11:33:40.862Z,102028.53
2024-01-11T11:35:44.636Z,102011.78
2024-01-11T11:37:46.718Z,102002.22
2024-01-11T11:39:49.926Z,102007.94
2024-01-11T11:41:53.822Z,102009.75
2024-01-11T11:43:56.743Z,102004.63
2024-01-11T11:46:08.578Z,102013.94
2024-01-11T11:48:46.221Z,102012.56
2024-01-11T11:50:49.716Z,102009.09
2024-01-11T11:52:56.817Z,102003.75
2024-01-11T11:55:01.526Z,102011.91
2024-01-11T11:57:04.214Z,102009.09
2024-01-11T11:59:09.487Z,101997.38
2024-01-11T12:01:14.166Z,101995.81
2024-01-11T12:03:18.894Z,101996.34
2024-01-11T12:05:21.974Z,101994.69
2024-01-11T12:07:25.640Z,101998.09
2024-01-11T12:09:28.649Z,101996.06
2024-01-11T12:11:32.098Z,101988.13
2024-01-11T12:13:34.636Z,101980.47
2024-01-11T12:15:37.460Z,101982.16
2024-01-11T12:17:43.817Z,101983.44
2024-01-11T12:19:46.833Z,101986.09
2024-01-11T12:21:49.909Z,101983.50
2024-01-11T12:23:53.008Z,101984.78
2024-01-11T12:25:55.057Z,101984.28
2024-01-11T12:27:58.195Z,101978.94
2024-01-11T12:30:03.729Z,101977.84
2024-01-11T12:32:07.588Z,101992.06
2024-01-11T12:34:13.725Z,101976.50
2024-01-11T12:36:17.167Z,101980.81
2024-01-11T12:38:19.483Z,101981.69
2024-01-11T12:40:22.714Z,101978.22
2024-01-11T12:42:25.724Z,101974.16
2024-01-11T12:44:27.907Z,101966.75
2024-01-11T12:46:30.924Z,101964.59
2024-01-11T12:48:34.138Z,101956.53
2024-01-11T12:50:38.636Z,101969.72
2024-01-11T12:52:42.869Z,101966.47
2024-01-11T12:54:46.918Z,101960.00
2024-01-11T12:56:51.465Z,101961.16
2024-01-11T12:59:07.403Z,101945.34
2024-01-11T13:01:11.715Z,101944.34
2024-01-11T13:03:14.664Z,101939.06
2024-01-11T13:05:18.301Z,101942.78
2024-01-11T13:07:24.233Z,101946.81
2024-01-11T13:09:27.276Z,101948.09
2024-01-11T13:11:29.651Z,101951.13
2024-01-11T13:13:32.528Z,101957.28
2024-01-11T13:15:35.775Z,101956.44
2024-01-11T13:17:38.793Z,101948.44
2024-01-11T13:19:41.870Z,101950.72
2024-01-11T13:21:44.760Z,101952.88
2024-01-11T13:23:49.289Z,101949.28
2024-01-11T13:25:52.483Z,101953.66
2024-01-11T13:27:55.358Z,101950.50
2024-01-11T13:29:59.264Z,101956.34
2024-01-11T13:32:04.609Z,101959.22
2024-01-11T13:34:08.816Z,101957.81
2024-01-11T13:36:12.972Z,101962.13
2024-01-11T13:38:16.356Z,101967.19
2024-01-11T13:40:20.683Z,101973.25
2024-01-11T13:42:23.605Z,101976.66
2024-01-11T13:44:26.663Z,101975.75
2024-01-11T13:46:29.639Z,101973.94
2024-01-11T13:48:32.804Z,101973.94
2024-01-11T13:50:36.136Z,101979.22
2024-01-11T13:52:39.206Z,101979.69
2024-01-11T13:54:42.173Z,101972.38
2024-01-11T13:56:47.650Z,101974.44
2024-01-11T13:58:50.937Z,101969.09
2024-01-11T14:00:55.223Z,101970.25
2024-01-11T14:02:57.457Z,101972.13
2024-01-11T14:05:00.443Z,101974.16
2024-01-11T14:07:04.593Z,101980.56
2024-01-11T14:09:10.567Z,101975.63
2024-01-11T14:11:13.733Z,101964.03
2024-01-11T14:13:18.042Z,101969.50
2024-01-11T14:15:21.007Z,101967.94
2024-01-11T14:17:24.354Z,101958.53
2024-01-11T14:19:29.337Z,101952.25
2024-01-11T14:21:32.366Z,101968.47
2024-01-11T14:23:35.304Z,101966.59
2024-01-11T14:25:38.321Z,101970.59
2024-01-11T14:27:42.281Z,101988.59
2024-01-11T14:29:46.598Z,101980.09
2024-01-11T14:31:50.172Z,101985.78
2024-01-11T14:33:52.258Z,101979.25
2024-01-11T14:35:55.280Z,101988.28
2024-01-11T14:37:58.143Z,101983.13
2024-01-11T14:40:01.325Z,101980.38
2024-01-11T14:42:04.606Z,101975.50
2024-01-11T14:44:07.590Z,101975.19
2024-01-11T14:46:12.301Z,101978.09
2024-01-11T14:48:15.572Z,101974.09
2024-01-11T14:50:17.823Z,101976.34
2024-01-11T14:52:20.967Z,101972.97
2024-01-11T14:54:23.977Z,101987.16
2024-01-11T14:56:26.984Z,101976.56
2024-01-11T14:58:29.878Z,101972.97
2024-01-11T15:00:32.991Z,101979.91
2024-01-11T15:02:37.370Z,101975.78
2024-01-11T15:04:40.647Z,101970.41
2024-01-11T15:06:43.630Z,101974.00
2024-01-11T15:08:46.824Z,101978.78
2024-01-11T15:10:50.779Z,101979.06
2024-01-11T15:12:53.727Z,101979.41
2024-01-11T15:14:56.835Z,101976.47
2024-01-11T15:17:00.179Z,101967.69
2024-01-11T15:19:05.477Z,101965.13
2024-01-11T15:21:08.384Z,101971.75
2024-01-11T15:23:11.352Z,101972.09
2024-01-11T15:25:14.296Z,101977.69
2024-01-11T15:27:17.819Z,101977.56
2024-01-11T15:29:21.017Z,101983.22
2024-01-11T15:31:24.166Z,101978.53
2024-01-11T15:33:27.358Z,101985.44
2024-01-11T15:35:31.976Z,101977.75
2024-01-11T15:37:35.630Z,101988.47
2024-01-11T15:39:38.952Z,101990.91
2024-01-11T15:41:42.328Z,101989.06
2024-01-11T15:43:48.408Z,101996.47
2024-01-11T15:45:51.361Z,101993.84
2024-01-11T15:47:54.393Z,101995.41
2024-01-11T15:49:58.887Z,102000.34
2024-01-11T15:52:03.221Z,102001.53
2024-01-11T15:54:06.169Z,101987.19
2024-01-11T15:56:08.241Z,101977.00
2024-01-11T15:58:11.234Z,101983.78
2024-01-11T16:00:14.544Z,101986.41
2024-01-11T16:02:17.622Z,101987.88
2024-01-11T16:04:20.681Z,101993.06
2024-01-11T16:06:23.605Z,101989.28
2024-01-11T16:08:26.992Z,101986.03
2024-01-11T16:10:30.008Z,101986.16
2024-01-11T16:12:33.018Z,101984.28
2024-01-11T16:14:36.059Z,101984.94
2024-01-11T16:16:39.742Z,101994.06
2024-01-11T16:18:42.864Z,101990.28
2024-01-11T16:20:46.143Z,101989.53
2024-01-11T16:22:49.242Z,101991.16
2024-01-11T16:24:53.509Z,101993.19
2024-01-11T16:26:56.473Z,101981.69
2024-01-11T16:28:59.442Z,101995.97
2024-01-11T16:31:02.373Z,101993.47
2024-01-11T16:33:05.818Z,101999.72
2024-01-11T16:35:09.794Z,102001.50
2024-01-11T16:37:12.870Z,102002.72
2024-01-11T16:39:15.759Z,102011.75
2024-01-11T16:41:20.208Z,102008.34
2024-01-11T16:43:23.472Z,102012.66
2024-01-11T16:45:26.434Z,102022.34
2024-01-11T16:47:30.132Z,102026.00
2024-01-11T16:49:33.153Z,102030.91
2024-01-11T16:51:36.084Z,102036.56
2024-01-11T16:53:43.551Z,102039.13
2024-01-11T16:55:45.607Z,102047.38
2024-01-11T16:57:49.836Z,102049.19
2024-01-11T16:59:51.818Z,102049.41
2024-01-11T17:01:54.839Z,102050.75
2024-01-11T17:03:57.054Z,102044.75
2024-01-11T17:06:00.182Z,102042.97
2024-01-11T17:08:04.465Z,102036.66
2024-01-11T17:10:08.069Z,102033.63
2024-01-11T17:12:11.109Z,102039.41
2024-01-11T17:14:15.422Z,102036.47
2024-01-11T17:16:21.162Z,102029.50
2024-01-11T17:18:24.890Z,102023.75
2024-01-11T17:20:27.962Z,102029.56
2024-01-11T17:22:30.949Z,102021.19
2024-01-11T17:24:34.161Z,102021.59
2024-01-11T17:26:37.065Z,102023.63
2024-01-11T17:28:40.041Z,102027.19
2024-01-11T17:30:44.587Z,102035.66
2024-01-11T17:32:47.566Z,102031.84
2024-01-11T17:34:54.177Z,102033.22
2024-01-11T17:36:57.309Z,102037.66
2024-01-11T17:39:01.522Z,102047.69
2024-01-11T17:41:05.209Z,102041.19
2024-01-11T17:43:08.517Z,102029.09
2024-01-11T17:45:12.152Z,102023.84
2024-01-11T17:47:16.480Z,102025.09
2024-01-11T17:49:19.514Z,102035.72
2024-01-11T17:51:22.511Z,102034.28
2024-01-11T17:53:25.439Z,102038.00
2024-01-11T17:55:30.090Z,102037.19
2024-01-11T17:57:32.045Z,102036.44
2024-01-11T17:59:35.078Z,102051.28
2024-01-11T18:01:38.283Z,102056.91
2024-01-11T18:03:42.506Z,102061.00
2024-01-11T18:05:46.446Z,102055.88
2024-01-11T18:07:49.599Z,102046.19
2024-01-11T18:09:53.354Z,102047.47
2024-01-11T18:11:56.540Z,102049.94
2024-01-11T18:13:59.881Z,102041.59
2024-01-11T18:16:02.885Z,102047.72
2024-01-11T18:18:06.636Z,102046.66
2024-01-11T18:20:11.292Z,102049.41
2024-01-11T18:22:14.261Z,102041.84
2024-01-11T18:24:18.427Z,102044.91
2024-01-11T18:26:21.344Z,102043.81
2024-01-11T18:28:24.041Z,102044.03
2024-01-11T18:30:27.020Z,102039.28
2024-01-11T18:32:29.090Z,102035.41
2024-01-11T18:34:33.789Z,102039.75
2024-01-11T18:36:46.839Z,102041.16
2024-01-11T18:38:50.192Z,102034.75
2024-01-11T18:40:53.170Z,102034.00
2024-01-11T18:42:56.989Z,102036.47
2024-01-11T18:45:00.197Z,102038.69
2024-01-11T18:47:03.672Z,102042.38
2024-01-11T18:49:08.041Z,102035.44
2024-01-11T18:51:11.019Z,102032.59
2024-01-11T18:53:15.378Z,102031.06
2024-01-11T18:55:18.565Z,102029.41
2024-01-11T18:57:21.507Z,102035.28
2024-01-11T18:59:24.606Z,102034.81
2024-01-11T19:01:29.568Z,102037.38
2024-01-11T19:03:32.375Z,102038.16
2024-01-11T19:05:38.631Z,102033.19
2024-01-11T19:07:41.613Z,102029.09
2024-01-11T19:09:46.237Z,102032.78
2024-01-11T19:11:51.594Z,102032.25
2024-01-11T19:13:54.709Z,102035.72
2024-01-11T19:15:57.677Z,102041.84
2024-01-11T19:18:00.851Z,102045.97
2024-01-11T19:20:04.232Z,102050.28
2024-01-11T19:22:07.115Z,102051.19
2024-01-11T19:24:10.136Z,102051.84
2024-01-11T19:26:14.510Z,102046.72
2024-01-11T19:28:17.449Z,102043.63
2024-01-11T19:30:20.445Z,102044.41
2024-01-11T19:32:23.869Z,102042.59
2024-01-11T19:34:26.835Z,102040.41
2024-01-11T19:36:28.872Z,102037.72
2024-01-11T19:38:35.443Z,102039.75
2024-01-11T19:40:38.412Z,102044.13
2024-01-11T19:42:43.831Z,102050.13
2024-01-11T19:44:46.799Z,102048.19
2024-01-11T19:46:48.815Z,102047.44
2024-01-11T19:48:52.029Z,102051.56
2024-01-11T19:50:54.136Z,102047.44
2024-01-11T19:52:57.038Z,102059.72
2024-01-11T19:55:00.156Z,102055.72
2024-01-11T19:57:03.133Z,102063.03
2024-01-11T19:59:07.510Z,102058.44
2024-01-11T20:01:10.920Z,102064.06
2024-01-11T20:03:14.654Z,102062.09
2024-01-11T20:05:17.748Z,102061.50
2024-01-11T20:07:20.872Z,102069.72
2024-01-11T20:09:23.835Z,102068.56
2024-01-11T20:11:26.712Z,102079.19
2024-01-11T20:13:29.695Z,102088.13
2024-01-11T20:15:32.970Z,102082.28
2024-01-11T20:17:36.129Z,102088.19
2024-01-11T20:19:39.209Z,102093.97
2024-01-11T20:21:42.113Z,102083.25
2024-01-11T20:23:44.596Z,102089.25
2024-01-11T20:25:49.826Z,102086.16
2024-01-11T20:27:52.684Z,102093.06
2024-01-11T20:29:55.657Z,102089.88
2024-01-11T20:32:00.146Z,102099.03
2024-01-11T20:34:03.652Z,102103.28
2024-01-11T20:36:08.440Z,102110.25
2024-01-11T20:38:11.597Z,102093.50
2024-01-11T20:40:14.472Z,102095.44
2024-01-11T20:42:17.406Z,102100.56
2024-01-11T20:44:20.362Z,102099.34
2024-01-11T20:46:24.798Z,102095.56
2024-01-11T20:48:31.658Z,102090.31
2024-01-11T20:50:33.889Z,102089.16
2024-01-11T20:52:36.910Z,102089.41
2024-01-11T20:54:39.965Z,102075.59
2024-01-11T20:56:44.299Z,102083.38
2024-01-11T20:58:47.307Z,102080.59
2024-01-11T21:00:50.287Z,102082.16
2024-01-11T21:02:52.395Z,102083.53
2024-01-11T21:04:56.702Z,102076.91
2024-01-11T21:06:59.953Z,102078.69
2024-01-11T21:09:03.819Z,102076.00
2024-01-11T21:11:07.319Z,102068.34
2024-01-11T21:13:12.062Z,102073.97
2024-01-11T21:15:15.882Z,102078.09
2024-01-11T21:17:19.970Z,102070.13
2024-01-11T21:19:23.133Z,102065.63
2024-01-11T21:21:27.703Z,102059.91
2024-01-11T21:23:29.926Z,102066.66
2024-01-11T21:25:32.933Z,102061.91
2024-01-11T21:27:36.125Z,102065.88
2024-01-11T21:29:39.239Z,102056.41
2024-01-11T21:31:41.278Z,102056.78
2024-01-11T21:33:44.818Z,102059.31
2024-01-11T21:35:47.987Z,102058.56
2024-01-11T21:37:52.499Z,102058.25
2024-01-11T21:39:57.353Z,102064.94
2024-01-11T21:42:00.203Z,102064.81
2024-01-11T21:44:03.373Z,102069.63
2024-01-11T21:46:08.742Z,102062.28
2024-01-11T21:48:11.813Z,102066.13
2024-01-11T21:50:14.916Z,102069.34
2024-01-11T21:52:17.914Z,102075.34
2024-01-11T21:54:24.074Z,102076.75
2024-01-11T21:56:27.245Z,102080.63
2024-01-11T21:58:31.085Z,102082.16
2024-01-11T22:00:34.769Z,102075.28
2024-01-11T22:02:38.639Z,102075.28
2024-01-11T22:04:40.630Z,102071.44
2024-01-11T22:06:44.817Z,102080.00
2024-01-11T22:08:47.862Z,102071.81
2024-01-11T22:10:53.128Z,102075.91
2024-01-11T22:12:56.096Z,102079.72
2024-01-11T22:14:59.089Z,102093.28
2024-01-11T22:17:02.123Z,102085.41
2024-01-11T22:19:08.841Z,102088.47
2024-01-11T22:21:11.986Z,102091.66
2024-01-11T22:23:15.111Z,102099.81
2024-01-11T22:25:18.380Z,102095.75
2024-01-11T22:27:23.398Z,102096.41
2024-01-11T22:29:26.255Z,102111.13
2024-01-11T22:31:33.432Z,102108.69
2024-01-11T22:33:37.305Z,102112.88
2024-01-11T22:35:39.611Z,102109.19
2024-01-11T22:37:42.726Z,102114.81
2024-01-11T22:39:45.712Z,102108.56
2024-01-11T22:41:48.791Z,102115.94
2024-01-11T22:43:54.487Z,102122.97
2024-01-11T22:45:56.427Z,102117.47
2024-01-11T22:47:59.372Z,102128.72
2024-01-11T22:50:04.519Z,102123.34
2024-01-11T22:52:08.329Z,102119.66
2024-01-11T22:54:11.317Z,102124.91
2024-01-11T22:56:13.376Z,102131.00
2024-01-11T22:58:16.376Z,102118.34
2024-01-11T23:00:26.725Z,102115.66
2024-01-11T23:02:29.898Z,102111.41
2024-01-11T23:04:33.859Z,102112.84
2024-01-11T23:06:36.592Z,102113.09
2024-01-11T23:08:39.775Z,102110.41
2024-01-11T23:10:42.817Z,102107.72
2024-01-11T23:12:45.427Z,102112.09
2024-01-11T23:14:48.478Z,102113.31
2024-01-11T23:16:53.168Z,102101.59
2024-01-11T23:18:56.216Z,102105.41
2024-01-11T23:20:59.395Z,102108.88
2024-01-11T23:23:01.378Z,102116.16
2024-01-11T23:25:04.648Z,102110.16
2024-01-11T23:27:09.215Z,102107.34
2024-01-11T23:29:12.276Z,102111.03
2024-01-11T23:31:14.729Z,102107.59
2024-01-11T23:33:19.335Z,102109.88
2024-01-11T23:35:22.365Z,102115.84
2024-01-11T23:37:25.354Z,102112.78